Time;durP1;ratioP1;P1;durP2;ratioP2;P2;SDS_P1;SDS_P2;PMS_P1;PMS_P2;Temp;Humidity;BMP_temperature;BMP_pressure;BME280_temperature;BME280_humidity;BME280_pressure;Samples;Min_cycle;Max_cycle;Signal;HPM_P1;HPM_P2
2023/08/03 00:01:58;;;;;;;;;;;;;;;17.92;84.87;96574.59;5040649;28;19932;-67
2023/08/03 00:04:46;;;;;;;;;;;;;;;17.85;84.92;96580.09;5045898;28;20388;-67
2023/08/03 00:07:35;;;;;;;;;;;;;;;17.78;84.50;96581.66;5033080;28;19929;-68
2023/08/03 00:10:23;;;;;;;;;;;;;;;17.77;84.36;96585.56;5048424;28;19929;-65
2023/08/03 00:13:11;;;;;;;;;;;;;;;17.78;84.30;96592.63;5034049;28;19924;-68
2023/08/03 00:15:59;;;;;;;;;;;;;;;17.77;83.51;96591.06;5045983;28;20448;-69
2023/08/03 00:18:49;;;;;;;;;;;;;;;17.80;82.36;96595.78;5044319;28;19977;-65
2023/08/03 00:21:37;;;;;;;;;;;;;;;17.83;82.04;96599.72;5051046;28;19928;-68
2023/08/03 00:24:25;;;;;;;;;;;;;;;17.86;82.27;96606.41;5051169;28;19925;-65
2023/08/03 00:27:14;;;;;;;;;;;;;;;17.84;82.30;96605.97;5039655;28;19929;-64
2023/08/03 00:30:02;;;;;;;;;;;;;;;17.82;80.78;96597.34;5037772;28;19932;-65
2023/08/03 00:32:50;;;;;;;;;;;;;;;17.84;80.49;96600.50;5037999;28;20027;-66
2023/08/03 00:35:40;;;;;;;;;;;;;;;17.81;79.82;96599.31;5041157;28;19925;-64
2023/08/03 00:38:28;;;;;;;;;;;;;;;17.93;79.69;96601.69;5043451;28;19939;-70
2023/08/03 00:41:16;;;;;;;;;;;;;;;17.88;79.90;96601.28;5037233;28;19929;-67
2023/08/03 00:44:04;;;;;;;;;;;;;;;17.86;79.35;96598.16;5041049;28;19924;-67
2023/08/03 00:46:52;;;;;;;;;;;;;;;17.83;79.17;96596.97;5045462;28;19925;-67
2023/08/03 00:49:41;;;;;;;;;;;;;;;17.85;79.08;96599.34;5045318;28;19929;-66
2023/08/03 00:52:30;;;;;;;;;;;;;;;17.87;79.32;96589.50;5038405;28;19932;-64
2023/08/03 00:55:18;;;;;;;;;;;;;;;17.86;79.57;96592.66;5050492;28;19939;-67
2023/08/03 00:58:07;;;;;;;;;;;;;;;17.81;79.66;96588.34;5039991;28;20298;-65
2023/08/03 01:00:55;;;;;;;;;;;;;;;17.83;79.58;96591.47;5054262;28;19928;-64
2023/08/03 01:03:43;;;;;;;;;;;;;;;17.78;78.94;96592.63;5036269;28;19929;-66
2023/08/03 01:06:31;;;;;;;;;;;;;;;17.76;78.75;96586.75;5041632;28;19929;-69
2023/08/03 01:09:21;;;;;;;;;;;;;;;17.77;77.82;96585.56;5039187;28;20553;-66
2023/08/03 01:12:09;;;;;;;;;;;;;;;17.80;76.83;96584.81;5039291;28;19975;-65
2023/08/03 01:14:57;;;;;;;;;;;;;;;17.83;77.13;96582.44;5038047;28;19932;-68
2023/08/03 01:17:45;;;;;;;;;;;;;;;17.80;76.35;96587.56;5038672;28;19936;-67
2023/08/03 01:20:33;;;;;;;;;;;;;;;17.80;76.01;96584.81;5044352;28;19932;-67
2023/08/03 01:23:23;;;;;;;;;;;;;;;17.81;77.09;96582.84;5039477;28;19929;-67
2023/08/03 01:26:11;;;;;;;;;;;;;;;17.85;76.76;96585.59;5033036;28;19932;-68
2023/08/03 01:28:59;;;;;;;;;;;;;;;17.83;76.59;96596.19;5041650;28;19936;-67
2023/08/03 01:31:47;;;;;;;;;;;;;;;17.83;76.81;96588.72;5040901;28;20577;-67
2023/08/03 01:34:36;;;;;;;;;;;;;;;17.80;76.72;96576.56;5042381;28;20614;-67
2023/08/03 01:37:26;;;;;;;;;;;;;;;17.80;76.26;96584.81;5037008;28;19928;-66
2023/08/03 01:40:15;;;;;;;;;;;;;;;17.84;76.65;96584.00;5033764;28;19929;-65
2023/08/03 01:43:05;;;;;;;;;;;;;;;17.83;77.62;96577.72;5035085;28;20129;-65
2023/08/03 01:45:53;;;;;;;;;;;;;;;17.83;77.65;96577.72;5031789;28;19967;-68
2023/08/03 01:48:41;;;;;;;;;;;;;;;17.80;77.17;96579.31;5045975;28;19963;-67
2023/08/03 01:51:29;;;;;;;;;;;;;;;17.73;77.75;96584.78;5035936;28;19929;-67
2023/08/03 01:54:17;;;;;;;;;;;;;;;17.77;78.14;96584.78;5044152;28;19929;-67
2023/08/03 01:57:07;;;;;;;;;;;;;;;17.78;77.86;96581.66;5039836;28;19929;-65
2023/08/03 01:59:55;;;;;;;;;;;;;;;17.82;77.55;96589.13;5033872;28;19931;-65
2023/08/03 02:02:44;;;;;;;;;;;;;;;17.80;76.76;96593.03;5047032;28;19959;-67
2023/08/03 02:05:35;;;;;;;;;;;;;;;17.80;76.65;96595.78;5045846;28;20592;-66
2023/08/03 02:08:23;;;;;;;;;;;;;;;17.81;76.12;96596.56;5035609;28;20747;-68
2023/08/03 02:11:11;;;;;;;;;;;;;;;17.78;74.91;96600.88;5040663;28;20079;-65
2023/08/03 02:14:01;;;;;;;;;;;;;;;17.82;75.14;96606.38;5036481;28;20380;-65
2023/08/03 02:16:49;;;;;;;;;;;;;;;17.79;74.91;96607.19;5033955;28;20070;-63
2023/08/03 02:19:37;;;;;;;;;;;;;;;17.79;74.39;96605.22;5039440;28;19931;-65
2023/08/03 02:22:25;;;;;;;;;;;;;;;17.80;74.82;96603.25;5034279;28;19983;-67
2023/08/03 02:25:15;;;;;;;;;;;;;;;17.79;74.17;96602.47;5038543;28;19929;-66
2023/08/03 02:28:04;;;;;;;;;;;;;;;17.81;73.33;96610.31;5040285;28;19986;-66
2023/08/03 02:30:53;;;;;;;;;;;;;;;17.78;73.71;96611.84;5046889;28;19936;-67
2023/08/03 02:33:42;;;;;;;;;;;;;;;17.82;72.21;96613.84;5032585;28;19925;-64
2023/08/03 02:36:31;;;;;;;;;;;;;;;17.74;72.28;96613.06;5040856;28;19928;-66
2023/08/03 02:39:24;;;;;;;;;;;;;;;17.73;72.50;96606.75;5035330;28;20021;-65
2023/08/03 02:42:12;;;;;;;;;;;;;;;17.73;72.76;96615.00;5037307;28;19924;-67
2023/08/03 02:45:04;;;;;;;;;;;;;;;17.68;73.11;96609.84;5042510;28;20401;-66
2023/08/03 02:47:55;;;;;;;;;;;;;;;17.67;72.49;96605.53;5042749;28;19928;-66
2023/08/03 02:50:44;;;;;;;;;;;;;;;17.70;72.56;96617.72;5036130;28;19978;-65
2023/08/03 02:53:34;;;;;;;;;;;;;;;17.70;71.96;96613.00;5045980;28;19959;-67
2023/08/03 02:56:23;;;;;;;;;;;;;;;17.69;71.02;96613.41;5043226;28;19929;-67
2023/08/03 02:59:18;;;;;;;;;;;;;;;17.68;69.67;96615.34;5042746;28;20337;-66
2023/08/03 03:02:06;;;;;;;;;;;;;;;17.69;70.39;96607.91;5046707;28;19935;-64
2023/08/03 03:04:59;;;;;;;;;;;;;;;17.70;69.42;96607.50;5044807;28;20470;-68
2023/08/03 03:07:47;;;;;;;;;;;;;;;17.70;69.88;96610.25;5041205;28;19929;-66
2023/08/03 03:10:35;;;;;;;;;;;;;;;17.66;69.50;96608.69;5042895;28;19928;-67
2023/08/03 03:13:25;;;;;;;;;;;;;;;17.67;68.90;96608.28;5049969;28;20336;-65
2023/08/03 03:16:13;;;;;;;;;;;;;;;17.70;68.51;96610.25;5043651;28;19932;-69
2023/08/03 03:19:01;;;;;;;;;;;;;;;17.64;68.87;96617.31;5037107;28;19971;-70
2023/08/03 03:21:52;;;;;;;;;;;;;;;17.67;67.94;96619.25;5047472;28;20393;-66
2023/08/03 03:24:40;;;;;;;;;;;;;;;17.61;67.40;96623.56;5041661;28;20472;-64
2023/08/03 03:27:28;;;;;;;;;;;;;;;17.63;67.57;96618.50;5047076;28;19940;-65
2023/08/03 03:30:17;;;;;;;;;;;;;;;17.64;67.81;96622.03;5039765;28;19925;-66
2023/08/03 03:33:05;;;;;;;;;;;;;;;17.67;68.98;96630.25;5032351;28;19929;-66
2023/08/03 03:35:53;;;;;;;;;;;;;;;17.72;68.45;96627.16;5037158;28;20240;-67
2023/08/03 03:38:43;;;;;;;;;;;;;;;17.74;67.71;96618.56;5037546;28;19936;-67
2023/08/03 03:41:31;;;;;;;;;;;;;;;17.71;67.92;96622.81;5041568;28;19929;-64
2023/08/03 03:44:19;;;;;;;;;;;;;;;17.70;68.52;96631.44;5040538;28;19932;-65
2023/08/03 03:47:07;;;;;;;;;;;;;;;17.71;68.32;96642.03;5040910;28;20039;-65
2023/08/03 03:50:01;;;;;;;;;;;;;;;17.64;68.15;96642.03;5040515;28;20426;-67
2023/08/03 03:52:51;;;;;;;;;;;;;;;17.62;67.84;96638.88;5048118;28;19936;-65
2023/08/03 03:55:40;;;;;;;;;;;;;;;17.59;67.85;96650.66;5039735;28;19928;-64
2023/08/03 03:58:29;;;;;;;;;;;;;;;17.51;68.22;96643.53;5040375;28;20343;-65
2023/08/03 04:01:17;;;;;;;;;;;;;;;17.55;68.54;96644.34;5042327;28;19925;-65
2023/08/03 04:04:08;;;;;;;;;;;;;;;17.57;68.54;96647.47;5041624;28;19925;-66
2023/08/03 04:06:58;;;;;;;;;;;;;;;17.50;68.22;96655.72;5045594;28;19925;-64
2023/08/03 04:09:46;;;;;;;;;;;;;;;17.51;68.98;96647.06;5046730;28;20031;-66
2023/08/03 04:12:36;;;;;;;;;;;;;;;17.59;68.66;96656.13;5042000;28;19925;-64
2023/08/03 04:15:24;;;;;;;;;;;;;;;17.59;67.86;96653.41;5044209;28;19940;-67
2023/08/03 04:18:13;;;;;;;;;;;;;;;17.69;67.87;96649.91;5040368;28;20336;-67
2023/08/03 04:21:01;;;;;;;;;;;;;;;17.62;67.43;96652.59;5040528;28;19964;-67
2023/08/03 04:23:49;;;;;;;;;;;;;;;17.58;65.67;96656.50;5040396;28;19925;-64
2023/08/03 04:26:40;;;;;;;;;;;;;;;17.63;66.89;96656.94;5041903;28;20067;-66
2023/08/03 04:29:34;;;;;;;;;;;;;;;17.60;66.42;96652.22;5039979;28;20490;-66
2023/08/03 04:32:22;;;;;;;;;;;;;;;17.60;64.53;96660.44;5046557;28;20440;-66
2023/08/03 04:35:10;;;;;;;;;;;;;;;17.65;65.74;96660.06;5036941;28;20378;-65
2023/08/03 04:38:04;;;;;;;;;;;;;;;17.68;65.42;96664.00;5037358;28;19936;-66
2023/08/03 04:40:54;;;;;;;;;;;;;;;17.68;65.49;96659.28;5039586;28;19925;-67
2023/08/03 04:43:46;;;;;;;;;;;;;;;17.71;65.53;96669.50;5046499;28;19928;-65
2023/08/03 04:46:37;;;;;;;;;;;;;;;17.65;64.20;96673.81;5031498;28;20008;-65
2023/08/03 04:49:26;;;;;;;;;;;;;;;17.70;65.32;96669.91;5040645;28;20074;-67
2023/08/03 04:52:17;;;;;;;;;;;;;;;17.68;65.56;96678.50;5035897;28;20641;-66
2023/08/03 04:55:06;;;;;;;;;;;;;;;17.69;65.05;96682.84;5037517;28;19955;-68
2023/08/03 04:57:54;;;;;;;;;;;;;;;17.70;65.11;96687.16;5042844;28;19936;-66
2023/08/03 05:00:44;;;;;;;;;;;;;;;17.69;65.41;96704.81;5038972;28;19936;-68
2023/08/03 05:03:34;;;;;;;;;;;;;;;17.68;63.88;96705.97;5031641;28;19933;-66
2023/08/03 05:06:24;;;;;;;;;;;;;;;17.71;65.35;96712.66;5035304;28;19936;-67
2023/08/03 05:09:12;;;;;;;;;;;;;;;17.77;65.70;96713.91;5034944;28;20263;-68
2023/08/03 05:12:00;;;;;;;;;;;;;;;17.74;65.94;96718.22;5039028;28;19925;-66
2023/08/03 05:14:49;;;;;;;;;;;;;;;17.75;65.78;96722.53;5033463;28;20680;-66
2023/08/03 05:17:37;;;;;;;;;;;;;;;17.72;64.99;96715.06;5041948;28;19939;-65
2023/08/03 05:20:27;;;;;;;;;;;;;;;17.69;64.83;96721.31;5033731;28;19936;-67
2023/08/03 05:23:15;;;;;;;;;;;;;;;17.76;65.94;96721.34;5037066;28;19955;-65
2023/08/03 05:26:03;;;;;;;;;;;;;;;17.68;64.84;96713.44;5031867;28;19932;-71
2023/08/03 05:28:51;;;;;;;;;;;;;;;17.76;65.80;96724.09;5048772;28;20180;-66
2023/08/03 05:31:39;;;;;;;;;;;;;;;17.74;65.10;96718.22;5043259;28;20392;-67
2023/08/03 05:34:27;;;;;;;;;;;;;;;17.76;65.48;96713.13;5043679;28;19936;-68
2023/08/03 05:37:17;;;;;;;;;;;;;;;17.76;65.70;96712.31;5043964;28;20542;-69
2023/08/03 05:40:05;;;;;;;;;;;;;;;17.81;65.38;96717.44;5033632;28;19932;-67
2023/08/03 05:42:53;;;;;;;;;;;;;;;17.87;64.45;96715.91;5039946;28;20502;-68
2023/08/03 05:45:42;;;;;;;;;;;;;;;17.87;65.00;96721.38;5043001;28;19991;-67
2023/08/03 05:48:31;;;;;;;;;;;;;;;17.99;64.18;96722.97;5040212;28;20306;-67
2023/08/03 05:51:20;;;;;;;;;;;;;;;18.12;64.62;96715.97;5033618;28;19929;-65
2023/08/03 05:54:13;;;;;;;;;;;;;;;18.18;63.90;96717.16;5044262;28;19928;-66
2023/08/03 05:57:01;;;;;;;;;;;;;;;18.24;62.69;96712.84;5036249;28;20545;-67
2023/08/03 05:59:49;;;;;;;;;;;;;;;18.30;63.23;96716.00;5056433;28;20443;-65
2023/08/03 06:02:38;;;;;;;;;;;;;;;18.29;63.30;96714.41;5042852;28;19932;-65
2023/08/03 06:05:33;;;;;;;;;;;;;;;18.39;63.42;96715.63;5033691;28;20378;-64
2023/08/03 06:08:25;;;;;;;;;;;;;;;18.28;62.21;96710.88;5039211;28;19968;-66
2023/08/03 06:11:16;;;;;;;;;;;;;;;18.24;63.36;96729.34;5040161;28;19933;-67
2023/08/03 06:14:13;;;;;;;;;;;;;;;18.32;63.63;96722.69;5034570;28;19933;-66
2023/08/03 06:17:02;;;;;;;;;;;;;;;18.32;63.49;96714.44;5045486;28;20020;-65
2023/08/03 06:19:50;;;;;;;;;;;;;;;18.37;63.19;96721.47;5047736;28;19936;-64
2023/08/03 06:22:38;;;;;;;;;;;;;;;18.50;62.43;96730.16;5040194;28;20038;-67
2023/08/03 06:25:28;;;;;;;;;;;;;;;18.61;62.41;96730.94;5049238;28;19956;-67
2023/08/03 06:28:18;;;;;;;;;;;;;;;18.50;61.88;96730.16;5055363;28;20078;-66
2023/08/03 06:31:15;;;;;;;;;;;;;;;18.46;62.50;96732.91;5042661;28;19924;-65
2023/08/03 06:34:04;;;;;;;;;;;;;;;18.56;62.21;96739.59;5050581;28;20015;-64
2023/08/03 06:36:52;;;;;;;;;;;;;;;18.46;60.62;96746.66;5048136;28;20374;-64
2023/08/03 06:39:40;;;;;;;;;;;;;;;18.46;61.07;96743.13;5043089;28;20431;-64
2023/08/03 06:42:28;;;;;;;;;;;;;;;18.45;60.91;96752.53;5048258;28;20414;-65
2023/08/03 06:45:18;;;;;;;;;;;;;;;18.44;61.60;96751.75;5045207;28;19932;-67
2023/08/03 06:48:06;;;;;;;;;;;;;;;18.46;61.57;96762.38;5036807;28;19929;-66
2023/08/03 06:50:54;;;;;;;;;;;;;;;18.40;61.80;96761.97;5042513;28;19975;-65
2023/08/03 06:53:43;;;;;;;;;;;;;;;18.40;61.51;96777.69;5039391;28;20275;-63
2023/08/03 06:56:31;;;;;;;;;;;;;;;18.35;60.79;96761.56;5038347;28;19925;-65
2023/08/03 06:59:21;;;;;;;;;;;;;;;18.43;60.49;96763.94;5043086;28;19925;-65
2023/08/03 07:02:11;;;;;;;;;;;;;;;18.45;59.03;96780.03;5037129;28;20008;-68
2023/08/03 07:04:59;;;;;;;;;;;;;;;18.30;57.59;96780.00;5038402;28;19928;-64
2023/08/03 07:07:50;;;;;;;;;;;;;;;18.31;58.31;96778.81;5041383;28;19929;-64
2023/08/03 07:10:38;;;;;;;;;;;;;;;18.28;57.70;96787.88;5038141;28;20665;-64
2023/08/03 07:13:26;;;;;;;;;;;;;;;18.32;58.08;96791.41;5037287;28;19925;-67
2023/08/03 07:16:14;;;;;;;;;;;;;;;18.33;57.12;96795.75;5058621;28;19928;-66
2023/08/03 07:19:06;;;;;;;;;;;;;;;18.36;58.22;96788.66;5042863;28;19925;-64
2023/08/03 07:21:54;;;;;;;;;;;;;;;18.37;58.52;96792.19;5041735;28;19929;-63
2023/08/03 07:24:42;;;;;;;;;;;;;;;18.53;57.92;96789.88;5042322;28;19929;-63
2023/08/03 07:27:30;;;;;;;;;;;;;;;18.65;57.89;96797.75;5060514;28;19928;-66
2023/08/03 07:30:19;;;;;;;;;;;;;;;18.45;55.80;96800.06;5042030;28;19928;-62
2023/08/03 07:33:07;;;;;;;;;;;;;;;18.59;58.35;96804.84;5042834;28;19928;-63
2023/08/03 07:35:57;;;;;;;;;;;;;;;18.57;57.33;96801.66;5040845;28;19939;-64
2023/08/03 07:38:45;;;;;;;;;;;;;;;18.54;57.20;96807.97;5037899;28;19928;-63
2023/08/03 07:41:35;;;;;;;;;;;;;;;18.80;58.47;96804.06;5043381;28;19930;-64
2023/08/03 07:44:25;;;;;;;;;;;;;;;18.75;57.64;96821.78;5036214;28;20545;-61
2023/08/03 07:47:34;;;;;;;;;;;;;;;18.76;56.22;96828.06;5033554;28;20398;-64
2023/08/03 07:50:22;;;;;;;;;;;;;;;18.54;55.06;96829.97;5048164;28;20346;-64
2023/08/03 07:53:12;;;;;;;;;;;;;;;18.63;56.27;96826.81;5038494;28;20309;-66
2023/08/03 07:56:00;;;;;;;;;;;;;;;18.52;56.44;96832.31;5040036;28;19940;-63
2023/08/03 07:58:49;;;;;;;;;;;;;;;18.51;57.08;96847.25;5036011;28;20001;-62
2023/08/03 08:01:37;;;;;;;;;;;;;;;18.58;57.20;96837.03;5049010;28;19929;-63
2023/08/03 08:04:25;;;;;;;;;;;;;;;18.73;57.91;96843.38;5046916;28;19936;-61
2023/08/03 08:07:16;;;;;;;;;;;;;;;18.58;56.27;96847.25;5039189;28;20051;-64
2023/08/03 08:10:06;;;;;;;;;;;;;;;18.59;56.94;96851.59;5046381;28;19947;-62
2023/08/03 08:12:54;;;;;;;;;;;;;;;18.64;57.00;96855.91;5042820;28;19944;-62
2023/08/03 08:15:42;;;;;;;;;;;;;;;18.70;57.53;96863.44;5037300;28;19932;-62
2023/08/03 08:18:30;;;;;;;;;;;;;;;18.69;57.36;96856.34;5034536;28;19928;-65
2023/08/03 08:21:19;;;;;;;;;;;;;;;19.00;58.22;96856.78;5039557;28;19925;-62
2023/08/03 08:24:09;;;;;;;;;;;;;;;19.16;56.91;96853.63;5043744;28;19933;-63
2023/08/03 08:26:59;;;;;;;;;;;;;;;19.08;57.46;96855.63;5043820;28;19932;-66
2023/08/03 08:29:47;;;;;;;;;;;;;;;19.27;57.49;96863.47;5037051;28;19925;-62
2023/08/03 08:32:35;;;;;;;;;;;;;;;19.22;57.70;96863.84;5042966;28;19932;-65
2023/08/03 08:35:24;;;;;;;;;;;;;;;19.28;57.77;96845.78;5042976;28;19940;-62
2023/08/03 08:38:12;;;;;;;;;;;;;;;19.40;57.56;96861.13;5039273;28;19933;-68
2023/08/03 08:41:01;;;;;;;;;;;;;;;19.59;57.24;96871.75;5040717;28;19925;-66
2023/08/03 08:43:51;;;;;;;;;;;;;;;19.29;55.72;96872.13;5038112;28;19929;-65
2023/08/03 08:46:41;;;;;;;;;;;;;;;19.25;56.74;96873.31;5034388;28;19948;-63
2023/08/03 08:49:29;;;;;;;;;;;;;;;19.20;55.54;96857.97;5038985;28;19929;-64
2023/08/03 08:52:20;;;;;;;;;;;;;;;19.21;56.58;96867.00;5029741;28;19928;-64
2023/08/03 08:55:11;;;;;;;;;;;;;;;19.17;54.74;96894.53;5039087;28;19933;-64
2023/08/03 08:58:03;;;;;;;;;;;;;;;19.25;54.69;96898.88;5034968;28;19933;-64
2023/08/03 09:01:03;;;;;;;;;;;;;;;19.20;54.13;96884.72;5041403;28;19963;-64
2023/08/03 09:03:52;;;;;;;;;;;;;;;19.25;53.88;96890.63;5042521;28;19925;-64
2023/08/03 09:06:45;;;;;;;;;;;;;;;19.08;53.72;96902.41;5041019;28;19985;-65
2023/08/03 09:09:34;;;;;;;;;;;;;;;18.99;53.58;96907.50;5040976;28;20302;-63
2023/08/03 09:12:26;;;;;;;;;;;;;;;18.98;53.69;96914.19;5040318;28;20267;-63
2023/08/03 09:15:14;;;;;;;;;;;;;;;19.13;54.19;96910.28;5040823;28;19933;-62
2023/08/03 09:18:06;;;;;;;;;;;;;;;19.24;52.89;96905.56;5035946;28;19951;-65
2023/08/03 09:21:08;;;;;;;;;;;;;;;19.45;54.23;96899.28;5034401;28;19932;-64
2023/08/03 09:24:01;;;;;;;;;;;;;;;19.47;52.16;96905.19;5038621;28;19932;-63
2023/08/03 09:26:52;;;;;;;;;;;;;;;19.47;53.24;96905.19;5037934;28;19999;-65
2023/08/03 09:29:44;;;;;;;;;;;;;;;19.64;53.66;96895.34;5045783;28;19932;-65
2023/08/03 09:32:34;;;;;;;;;;;;;;;19.82;53.62;96893.38;5047531;28;20051;-66
2023/08/03 09:35:25;;;;;;;;;;;;;;;19.76;51.01;96903.22;5040439;28;19929;-63
2023/08/03 09:38:23;;;;;;;;;;;;;;;19.65;51.68;96913.44;5029195;28;19925;-65
2023/08/03 09:41:12;;;;;;;;;;;;;;;19.76;53.01;96919.75;5052213;28;19971;-62
2023/08/03 09:44:00;;;;;;;;;;;;;;;19.65;51.34;96940.22;5035027;28;20031;-63
2023/08/03 09:46:49;;;;;;;;;;;;;;;19.62;52.68;96922.53;5045903;28;19924;-63
2023/08/03 09:49:38;;;;;;;;;;;;;;;19.70;52.96;96920.53;5032080;28;19929;-66
2023/08/03 09:52:28;;;;;;;;;;;;;;;19.71;52.12;96924.84;5041308;28;20014;-66
2023/08/03 09:55:21;;;;;;;;;;;;;;;19.68;53.09;96933.94;5046223;28;19937;-67
2023/08/03 09:58:11;;;;;;;;;;;;;;;19.59;50.44;96937.06;5034163;28;20545;-64
2023/08/03 10:01:00;;;;;;;;;;;;;;;19.55;51.24;96939.03;5031670;28;20570;-64
2023/08/03 10:03:58;;;;;;;;;;;;;;;19.54;51.96;96945.69;5042417;28;19931;-64
2023/08/03 10:06:46;;;;;;;;;;;;;;;19.55;50.72;96947.31;5042622;28;19928;-64
2023/08/03 10:09:37;;;;;;;;;;;;;;;19.56;51.19;96938.63;5046623;28;19929;-64
2023/08/03 10:12:27;;;;;;;;;;;;;;;19.65;50.49;96941.00;5039302;28;19925;-64
2023/08/03 10:15:15;;;;;;;;;;;;;;;19.60;51.20;96961.50;5034381;28;19936;-65
2023/08/03 10:18:04;;;;;;;;;;;;;;;19.60;50.76;96956.00;5041906;28;20002;-61
2023/08/03 10:20:52;;;;;;;;;;;;;;;19.63;51.69;96944.16;5040076;28;20019;-64
2023/08/03 10:23:45;;;;;;;;;;;;;;;19.53;48.37;96938.63;5052067;28;20038;-64
2023/08/03 10:26:34;;;;;;;;;;;;;;;19.58;48.51;96943.75;5035976;28;20071;-63
2023/08/03 10:29:41;;;;;;;;;;;;;;;19.56;50.13;96968.16;5038024;28;19932;-66
2023/08/03 10:32:30;;;;;;;;;;;;;;;19.50;49.75;96953.19;5043210;28;20267;-65
2023/08/03 10:35:37;;;;;;;;;;;;;;;19.50;49.74;96961.47;5040188;28;19929;-65
2023/08/03 10:38:28;;;;;;;;;;;;;;;19.46;49.95;96950.44;5040278;28;20393;-65
2023/08/03 10:41:22;;;;;;;;;;;;;;;19.48;49.25;96964.59;5039722;28;19940;-67
2023/08/03 10:44:27;;;;;;;;;;;;;;;19.48;48.94;96950.03;5029954;28;20426;-64
2023/08/03 10:47:22;;;;;;;;;;;;;;;19.45;49.09;96959.09;5049139;28;19932;-63
2023/08/03 10:50:11;;;;;;;;;;;;;;;19.47;48.93;96968.53;5043107;28;20616;-64
2023/08/03 10:52:59;;;;;;;;;;;;;;;19.48;49.47;96958.28;5036020;28;20310;-65
2023/08/03 10:55:48;;;;;;;;;;;;;;;19.53;49.14;96966.16;5036696;28;20412;-64
2023/08/03 10:58:47;;;;;;;;;;;;;;;19.63;50.38;96959.91;5044371;28;20027;-64
2023/08/03 11:01:39;;;;;;;;;;;;;;;19.70;49.10;96948.88;5033019;28;19928;-65
2023/08/03 11:04:28;;;;;;;;;;;;;;;19.73;49.79;96956.38;5043095;28;19955;-64
2023/08/03 11:07:17;;;;;;;;;;;;;;;19.73;49.05;96959.13;5040283;28;20570;-63
2023/08/03 11:10:06;;;;;;;;;;;;;;;19.79;49.78;96954.78;5047473;28;19967;-64
2023/08/03 11:12:55;;;;;;;;;;;;;;;19.85;48.76;96961.47;5044252;28;19947;-62
2023/08/03 11:15:43;;;;;;;;;;;;;;;19.74;49.84;96963.44;5040573;28;19924;-64
2023/08/03 11:18:33;;;;;;;;;;;;;;;19.72;49.13;96963.06;5037338;28;20417;-65
2023/08/03 11:21:21;;;;;;;;;;;;;;;19.74;49.47;96981.94;5040453;28;19928;-66
2023/08/03 11:24:10;;;;;;;;;;;;;;;19.72;49.54;96976.84;5039625;28;19928;-63
2023/08/03 11:26:58;;;;;;;;;;;;;;;19.74;49.18;96977.22;5038238;28;19929;-64
2023/08/03 11:29:46;;;;;;;;;;;;;;;19.78;49.27;96978.03;5038325;28;19929;-67
2023/08/03 11:32:34;;;;;;;;;;;;;;;19.88;48.89;96977.22;5043211;28;19932;-63
2023/08/03 11:35:24;;;;;;;;;;;;;;;19.97;48.99;96984.28;5040754;28;20229;-65
2023/08/03 11:38:13;;;;;;;;;;;;;;;19.93;48.82;96967.00;5043627;28;20307;-64
2023/08/03 11:41:01;;;;;;;;;;;;;;;19.95;49.72;96975.63;5042562;28;20397;-64
2023/08/03 11:43:50;;;;;;;;;;;;;;;19.92;49.60;96979.19;5045800;28;19932;-66
2023/08/03 11:46:38;;;;;;;;;;;;;;;20.01;49.93;96979.56;5041267;28;19929;-64
2023/08/03 11:49:26;;;;;;;;;;;;;;;19.97;49.95;96985.06;5035227;28;19978;-64
2023/08/03 11:52:19;;;;;;;;;;;;;;;19.95;49.57;96986.66;5052688;28;19929;-64
2023/08/03 11:55:08;;;;;;;;;;;;;;;20.01;50.33;96993.34;5036672;28;19976;-65
2023/08/03 11:58:09;;;;;;;;;;;;;;;20.03;49.54;96991.78;5043851;28;19967;-63
2023/08/03 12:00:57;;;;;;;;;;;;;;;20.08;49.47;96983.13;5043718;28;20432;-63
2023/08/03 12:03:45;;;;;;;;;;;;;;;20.15;50.11;96996.09;5044565;28;20015;-63
2023/08/03 12:06:44;;;;;;;;;;;;;;;20.07;48.83;96981.53;5045614;28;20346;-66
2023/08/03 12:09:40;;;;;;;;;;;;;;;20.09;49.51;96986.66;5039424;28;19929;-64
2023/08/03 12:12:28;;;;;;;;;;;;;;;20.14;50.26;96995.31;5047879;28;19928;-65
2023/08/03 12:15:23;;;;;;;;;;;;;;;20.13;49.37;96993.75;5042680;28;19944;-64
2023/08/03 12:18:13;;;;;;;;;;;;;;;20.26;50.03;96996.88;5039106;28;20133;-63
2023/08/03 12:21:01;;;;;;;;;;;;;;;20.28;49.77;97004.75;5039076;28;20007;-65
2023/08/03 12:23:53;;;;;;;;;;;;;;;20.19;49.72;97007.09;5035276;28;19963;-65
2023/08/03 12:26:42;;;;;;;;;;;;;;;20.15;49.79;97007.91;5041467;28;19929;-65
2023/08/03 12:29:31;;;;;;;;;;;;;;;20.14;49.69;97013.84;5046008;28;20166;-63
2023/08/03 12:32:28;;;;;;;;;;;;;;;20.23;49.57;97014.19;5044381;28;19940;-64
2023/08/03 12:35:20;;;;;;;;;;;;;;;20.19;48.47;97024.47;5035737;28;20571;-64
2023/08/03 12:38:08;;;;;;;;;;;;;;;20.25;48.81;97022.88;5045010;28;19928;-65
2023/08/03 12:40:57;;;;;;;;;;;;;;;20.19;48.95;97023.66;5039487;28;19933;-65
2023/08/03 12:43:46;;;;;;;;;;;;;;;20.15;48.80;97005.16;5040607;28;19925;-65
2023/08/03 12:46:35;;;;;;;;;;;;;;;20.13;48.95;97037.88;5049773;28;19959;-64
2023/08/03 12:49:23;;;;;;;;;;;;;;;20.14;49.80;97028.41;5046347;28;19954;-64
2023/08/03 12:52:11;;;;;;;;;;;;;;;20.17;49.96;97035.09;5044681;28;20444;-64
2023/08/03 12:55:00;;;;;;;;;;;;;;;20.18;49.63;97035.88;5042073;28;19928;-64
2023/08/03 12:57:49;;;;;;;;;;;;;;;20.18;49.92;97044.94;5033687;28;19933;-66
2023/08/03 13:00:38;;;;;;;;;;;;;;;20.20;50.49;97045.34;5035214;28;20054;-65
2023/08/03 13:03:27;;;;;;;;;;;;;;;20.25;50.17;97049.69;5040625;28;19925;-64
2023/08/03 13:06:16;;;;;;;;;;;;;;;20.18;50.05;97061.47;5037021;28;19930;-64
2023/08/03 13:09:04;;;;;;;;;;;;;;;20.16;50.47;97055.59;5047008;28;19929;-66
2023/08/03 13:11:52;;;;;;;;;;;;;;;20.19;50.25;97060.31;5042182;28;19924;-65
2023/08/03 13:14:40;;;;;;;;;;;;;;;20.23;50.64;97061.09;5037536;28;20034;-65
2023/08/03 13:17:30;;;;;;;;;;;;;;;20.24;50.78;97082.00;5045029;28;19933;-66
2023/08/03 13:20:19;;;;;;;;;;;;;;;20.20;50.87;97081.19;5035811;28;19940;-67
2023/08/03 13:23:11;;;;;;;;;;;;;;;20.20;50.77;97086.72;5048164;28;20396;-68
2023/08/03 13:25:59;;;;;;;;;;;;;;;20.12;50.75;97074.88;5034893;28;19979;-69
2023/08/03 13:28:50;;;;;;;;;;;;;;;20.18;51.26;97077.25;5050772;28;19925;-67
2023/08/03 13:31:40;;;;;;;;;;;;;;;20.18;51.21;97075.25;5039947;28;19924;-69
2023/08/03 13:34:29;;;;;;;;;;;;;;;20.15;50.97;97076.06;5044112;28;19924;-67
2023/08/03 13:37:18;;;;;;;;;;;;;;;20.15;51.34;97079.63;5035328;28;19925;-68
2023/08/03 13:40:08;;;;;;;;;;;;;;;20.25;51.32;97086.31;5035242;28;19925;-68
2023/08/03 13:42:59;;;;;;;;;;;;;;;20.28;51.61;97082.75;5041515;28;20440;-68
2023/08/03 13:45:47;;;;;;;;;;;;;;;20.30;51.63;97083.16;5038703;28;19931;-70
2023/08/03 13:48:35;;;;;;;;;;;;;;;20.28;51.78;97076.44;5036977;28;19936;-66
2023/08/03 13:51:25;;;;;;;;;;;;;;;20.28;51.68;97071.72;5044479;28;19928;-69
2023/08/03 13:54:13;;;;;;;;;;;;;;;20.23;51.81;97085.91;5038666;28;19936;-66
2023/08/03 13:57:01;;;;;;;;;;;;;;;20.23;52.26;97069.34;5035202;28;20405;-68
2023/08/03 13:59:55;;;;;;;;;;;;;;;20.19;52.63;97067.78;5046320;28;20420;-67
2023/08/03 14:02:46;;;;;;;;;;;;;;;20.23;52.37;97077.63;5037478;28;19925;-64
2023/08/03 14:05:34;;;;;;;;;;;;;;;20.27;51.92;97074.88;5033327;28;19929;-64
2023/08/03 14:08:27;;;;;;;;;;;;;;;20.32;52.17;97067.00;5039843;28;19964;-65
2023/08/03 14:11:15;;;;;;;;;;;;;;;20.32;52.20;97071.72;5038342;28;19975;-66
2023/08/03 14:14:08;;;;;;;;;;;;;;;20.36;52.49;97073.31;5035136;28;19929;-65
2023/08/03 14:17:16;;;;;;;;;;;;;;;20.43;52.51;97072.50;5033766;28;20028;-65
2023/08/03 14:20:24;;;;;;;;;;;;;;;20.41;51.23;97058.31;5035598;28;20027;-66
2023/08/03 14:23:15;;;;;;;;;;;;;;;20.47;51.61;97064.25;5040763;28;19945;-65
2023/08/03 14:26:09;;;;;;;;;;;;;;;20.53;50.87;97071.72;5039456;28;19955;-66
2023/08/03 14:28:57;;;;;;;;;;;;;;;20.50;50.42;97080.78;5047331;28;20003;-64
2023/08/03 14:31:49;;;;;;;;;;;;;;;20.52;50.09;97080.41;5029676;28;19936;-64
2023/08/03 14:34:37;;;;;;;;;;;;;;;20.51;49.65;97073.31;5037463;28;19929;-65
2023/08/03 14:37:28;;;;;;;;;;;;;;;20.51;49.68;97078.84;5040635;28;20360;-65
2023/08/03 14:40:17;;;;;;;;;;;;;;;20.61;50.00;97089.03;5044433;28;20408;-66
2023/08/03 14:43:06;;;;;;;;;;;;;;;20.70;49.14;97089.41;5039797;28;19981;-65
2023/08/03 14:45:54;;;;;;;;;;;;;;;20.75;49.32;97085.47;5043744;28;19929;-65